KSNK/SNK METAR and TAF weather

Enter ICAO airport designator
Station Type Date Time Source
KSNK METAR 2021/09/24 00:35 UTC NOAA

KSNK 240035Z AUTO 14008KT 10SM CLR 27/03 A3003 RMK AO2 T02680028


Station Type Date Time Source
KSNK Decoded METAR 2021/09/24 00:35 UTC NOAA

Snyder, Winston Field Airport, TX, United States (KSNK) 32-41-36N 100-57-01W
Sep 23, 2021 - 08:35 PM EDT / 2021.09.24 0035 UTC
Wind: from the SE (140 degrees) at 9 MPH (8 KT):0
Visibility: 10 mile(s):0
Sky conditions: clear
Temperature: 80.2 F (26.8 C)
Dew Point: 37.0 F (2.8 C)
Relative Humidity: 21%
Pressure (altimeter): 30.03 in. Hg (1016 hPa)
ob: KSNK 240035Z AUTO 14008KT 10SM CLR 27/03 A3003 RMK AO2 T02680028
cycle: 0

Station Type Date Time Source
KSNK TAF UTC NOAA

Error!

Example: see airport list